createdAt,value
2022-12-11T00:04:55.590Z,99527.13
2022-12-11T00:07:25.631Z,99518.31
2022-12-11T00:16:58.632Z,99516.97
2022-12-11T00:19:25.411Z,99516.34
2022-12-11T00:21:52.153Z,99521.69
2022-12-11T00:25:17.160Z,99515.72
2022-12-11T00:27:56.257Z,99519.81
2022-12-11T00:30:24.438Z,99523.66
2022-12-11T00:32:54.378Z,99538.91
2022-12-11T00:35:22.333Z,99543.09
2022-12-11T00:37:49.073Z,99548.41
2022-12-11T00:40:15.832Z,99551.06
2022-12-11T00:42:42.649Z,99548.31
2022-12-11T00:45:12.796Z,99550.03
2022-12-11T00:47:39.695Z,99545.28
2022-12-11T00:50:07.117Z,99545.97
2022-12-11T00:52:35.077Z,99552.31
2022-12-11T00:55:08.728Z,99556.47
2022-12-11T00:58:04.594Z,99561.94
2022-12-11T01:00:31.630Z,99558.50
2022-12-11T01:02:58.701Z,99561.41
2022-12-11T01:06:02.705Z,99560.34
2022-12-11T01:08:32.732Z,99556.47
2022-12-11T01:11:12.048Z,99555.97
2022-12-11T01:13:39.932Z,99556.16
2022-12-11T01:16:12.842Z,99552.91
2022-12-11T01:18:39.850Z,99544.41
2022-12-11T01:21:13.774Z,99552.78
2022-12-11T01:23:40.893Z,99554.19
2022-12-11T01:26:25.588Z,99553.44
2022-12-11T01:28:55.517Z,99545.19
2022-12-11T01:31:22.504Z,99540.97
2022-12-11T01:33:49.304Z,99546.09
2022-12-11T01:36:56.948Z,99548.84
2022-12-11T01:39:23.893Z,99551.59
2022-12-11T01:42:01.850Z,99546.09
2022-12-11T01:44:40.830Z,99536.44
2022-12-11T01:47:41.953Z,99545.19
2022-12-11T01:50:08.798Z,99539.66
2022-12-11T01:52:35.757Z,99537.81
2022-12-11T01:55:02.736Z,99534.13
2022-12-11T01:57:30.054Z,99535.84
2022-12-11T01:59:59.096Z,99531.63
2022-12-11T02:06:03.036Z,99537.72
2022-12-11T02:08:30.199Z,99529.28
2022-12-11T02:17:32.693Z,99533.38
2022-12-11T02:24:19.912Z,99543.44
2022-12-11T02:27:27.233Z,99531.66
2022-12-11T02:30:02.833Z,99527.16
2022-12-11T02:32:35.678Z,99523.53
2022-12-11T02:41:59.247Z,99509.31
2022-12-11T02:44:30.893Z,99515.19
2022-12-11T02:46:58.887Z,99501.13
2022-12-11T02:49:28.028Z,99495.41
2022-12-11T02:52:41.456Z,99495.19
2022-12-11T02:55:09.490Z,99494.97
2022-12-11T02:57:43.875Z,99496.03
2022-12-11T03:00:12.064Z,99499.25
2022-12-11T03:06:23.688Z,99504.56
2022-12-11T03:08:55.071Z,99509.72
2022-12-11T03:11:30.832Z,99504.91
2022-12-11T03:17:12.067Z,99515.25
2022-12-11T03:27:18.758Z,99507.53
2022-12-11T03:30:07.876Z,99505.72
2022-12-11T03:33:13.652Z,99517.78
2022-12-11T03:35:49.251Z,99518.84
2022-12-11T03:38:24.017Z,99507.59
2022-12-11T03:40:55.119Z,99512.56
2022-12-11T03:43:23.170Z,99517.44
2022-12-11T03:45:52.352Z,99517.59
2022-12-11T03:48:24.002Z,99515.91
2022-12-11T03:54:29.587Z,99497.34
2022-12-11T03:56:59.436Z,99498.88
2022-12-11T03:59:26.392Z,99505.38
2022-12-11T04:01:53.472Z,99514.34
2022-12-11T04:04:20.618Z,99515.44
2022-12-11T04:10:16.090Z,99535.84
2022-12-11T04:12:46.632Z,99523.94
2022-12-11T04:15:15.838Z,99521.38
2022-12-11T04:18:01.321Z,99512.00
2022-12-11T04:20:50.139Z,99516.47
2022-12-11T04:26:29.530Z,99516.88
2022-12-11T04:28:56.441Z,99508.50
2022-12-11T04:31:23.309Z,99509.38
2022-12-11T04:33:50.592Z,99511.56
2022-12-11T04:36:17.834Z,99519.72
2022-12-11T04:45:40.985Z,99517.91
2022-12-11T04:48:07.737Z,99513.44
2022-12-11T04:54:11.744Z,99525.66
2022-12-11T05:00:11.560Z,99538.28
2022-12-11T05:02:44.041Z,99544.16
2022-12-11T05:05:14.631Z,99550.84
2022-12-11T05:07:44.835Z,99551.84
2022-12-11T05:10:17.888Z,99556.06
2022-12-11T05:12:44.704Z,99554.00
2022-12-11T05:18:07.147Z,99553.66
2022-12-11T05:20:36.708Z,99558.66
2022-12-11T05:23:03.702Z,99567.91
2022-12-11T05:25:30.406Z,99564.41
2022-12-11T05:28:09.177Z,99561.44
2022-12-11T05:30:39.075Z,99568.56
2022-12-11T05:33:08.815Z,99556.13
2022-12-11T05:35:35.634Z,99564.00
2022-12-11T05:38:02.635Z,99552.78
2022-12-11T05:44:44.535Z,99547.44
2022-12-11T05:47:11.380Z,99540.00
2022-12-11T05:50:03.753Z,99548.91
2022-12-11T05:52:34.914Z,99554.28
2022-12-11T05:58:39.968Z,99544.16
2022-12-11T06:04:41.048Z,99550.59
2022-12-11T06:07:07.950Z,99554.31
2022-12-11T06:13:03.507Z,99581.44
2022-12-11T06:15:30.555Z,99580.84
2022-12-11T06:20:50.276Z,99581.28
2022-12-11T06:23:20.186Z,99590.88
2022-12-11T06:26:30.787Z,99587.19
2022-12-11T06:32:48.456Z,99585.81
2022-12-11T06:35:15.330Z,99588.91
2022-12-11T06:37:42.079Z,99585.38
2022-12-11T06:40:46.139Z,99588.34
2022-12-11T06:43:13.103Z,99579.97
2022-12-11T06:45:43.011Z,99588.66
2022-12-11T06:55:03.342Z,99601.31
2022-12-11T06:57:30.063Z,99613.69
2022-12-11T06:59:56.864Z,99610.22
2022-12-11T07:02:27.273Z,99616.88
2022-12-11T07:05:17.124Z,99621.44
2022-12-11T07:11:14.471Z,99617.31
2022-12-11T07:17:01.560Z,99618.75
2022-12-11T07:19:30.143Z,99631.06
2022-12-11T07:21:59.674Z,99650.78
2022-12-11T07:25:17.306Z,99636.69
2022-12-11T07:34:52.094Z,99671.41
2022-12-11T07:37:18.956Z,99671.97
2022-12-11T07:46:51.909Z,99675.25
2022-12-11T07:49:18.933Z,99695.25
2022-12-11T07:51:45.849Z,99694.50
2022-12-11T07:54:16.653Z,99705.25
2022-12-11T07:56:53.184Z,99702.13
2022-12-11T07:59:21.301Z,99707.44
2022-12-11T08:01:50.788Z,99713.84
2022-12-11T08:04:17.554Z,99709.34
2022-12-11T08:07:31.467Z,99704.75
2022-12-11T08:09:58.260Z,99714.06
2022-12-11T08:12:25.008Z,99721.34
2022-12-11T08:14:51.769Z,99727.44
2022-12-11T08:17:18.500Z,99739.00
2022-12-11T08:19:45.321Z,99738.13
2022-12-11T08:22:14.169Z,99742.97
2022-12-11T08:24:42.925Z,99747.28
2022-12-11T08:27:09.708Z,99754.19
2022-12-11T08:29:40.105Z,99746.50
2022-12-11T08:32:12.124Z,99765.19
2022-12-11T08:34:40.533Z,99764.75
2022-12-11T08:37:09.329Z,99773.94
2022-12-11T08:39:40.211Z,99788.00
2022-12-11T08:42:07.916Z,99785.09
2022-12-11T08:44:34.693Z,99790.75
2022-12-11T08:47:01.383Z,99784.41
2022-12-11T08:49:34.041Z,99787.56
2022-12-11T08:52:03.173Z,99786.06
2022-12-11T08:54:32.806Z,99781.59
2022-12-11T08:56:59.813Z,99793.19
2022-12-11T08:59:26.758Z,99796.81
2022-12-11T09:01:55.739Z,99803.88
2022-12-11T09:04:26.841Z,99803.78
2022-12-11T09:06:58.675Z,99812.78
2022-12-11T09:09:25.563Z,99820.53
2022-12-11T09:11:53.190Z,99815.16
2022-12-11T09:14:20.201Z,99806.09
2022-12-11T09:16:47.098Z,99817.25
2022-12-11T09:19:15.408Z,99829.97
2022-12-11T09:21:43.342Z,99835.13
2022-12-11T09:24:11.410Z,99836.38
2022-12-11T09:26:42.066Z,99833.03
2022-12-11T09:29:17.771Z,99839.50
2022-12-11T09:31:45.519Z,99843.28
2022-12-11T09:34:13.456Z,99852.63
2022-12-11T09:36:44.442Z,99858.41
2022-12-11T09:39:15.246Z,99868.03
2022-12-11T09:42:18.311Z,99858.22
2022-12-11T09:44:55.174Z,99872.13
2022-12-11T09:47:56.176Z,99867.06
2022-12-11T09:50:29.552Z,99857.25
2022-12-11T09:53:34.291Z,99856.66
2022-12-11T09:56:27.054Z,99852.81
2022-12-11T09:59:11.939Z,99854.19
2022-12-11T10:01:48.588Z,99855.19
2022-12-11T10:04:27.238Z,99851.13
2022-12-11T10:07:16.470Z,99847.53
2022-12-11T10:09:58.373Z,99845.38
2022-12-11T10:12:52.303Z,99838.09
2022-12-11T10:15:46.524Z,99841.56
2022-12-11T10:18:18.218Z,99847.31
2022-12-11T10:20:54.173Z,99846.66
2022-12-11T10:23:30.190Z,99841.22
2022-12-11T10:26:22.142Z,99828.34
2022-12-11T10:29:07.073Z,99828.50
2022-12-11T10:31:49.157Z,99822.53
2022-12-11T10:34:41.527Z,99827.56
2022-12-11T10:37:08.398Z,99824.97
2022-12-11T10:39:35.269Z,99818.22
2022-12-11T10:42:16.579Z,99827.41
2022-12-11T10:44:57.858Z,99828.22
2022-12-11T10:47:24.683Z,99830.56
2022-12-11T10:50:02.642Z,99834.81
2022-12-11T10:52:41.252Z,99832.00
2022-12-11T10:55:27.617Z,99850.16
2022-12-11T10:58:01.857Z,99850.47
2022-12-11T11:00:36.166Z,99836.25
2022-12-11T11:03:05.347Z,99839.59
2022-12-11T11:05:36.503Z,99837.84
2022-12-11T11:08:25.643Z,99848.78
2022-12-11T11:10:55.056Z,99839.63
2022-12-11T11:13:24.626Z,99843.16
2022-12-11T11:16:04.341Z,99842.59
2022-12-11T11:18:32.199Z,99851.59
2022-12-11T11:21:00.803Z,99844.94
2022-12-11T11:23:28.609Z,99852.91
2022-12-11T11:25:58.964Z,99853.22
2022-12-11T11:28:33.664Z,99854.19
2022-12-11T11:31:18.930Z,99855.88
2022-12-11T11:34:09.699Z,99861.00
2022-12-11T11:36:43.382Z,99863.38
2022-12-11T11:39:28.273Z,99870.31
2022-12-11T11:42:01.195Z,99871.31
2022-12-11T11:44:42.727Z,99866.03
2022-12-11T11:47:32.581Z,99859.59
2022-12-11T11:50:21.868Z,99865.84
2022-12-11T11:52:54.929Z,99862.75
2022-12-11T11:55:37.266Z,99857.88
2022-12-11T11:58:36.645Z,99857.75
2022-12-11T12:01:03.373Z,99852.91
2022-12-11T12:03:30.618Z,99853.75
2022-12-11T12:06:14.872Z,99851.25
2022-12-11T12:09:22.594Z,99858.34
2022-12-11T12:12:00.510Z,99865.19
2022-12-11T12:14:52.425Z,99860.84
2022-12-11T12:17:55.983Z,99865.97
2022-12-11T12:20:34.045Z,99869.13
2022-12-11T12:23:24.952Z,99869.41
2022-12-11T12:26:10.046Z,99863.53
2022-12-11T12:28:53.077Z,99864.19
2022-12-11T12:31:41.357Z,99864.63
2022-12-11T12:34:29.673Z,99863.47
2022-12-11T12:37:02.032Z,99868.13
2022-12-11T12:40:03.893Z,99868.63
2022-12-11T12:42:56.727Z,99870.88
2022-12-11T12:45:30.740Z,99873.47
2022-12-11T12:48:03.630Z,99874.59
2022-12-11T12:50:44.514Z,99878.97
2022-12-11T12:53:18.617Z,99877.53
2022-12-11T12:55:46.671Z,99877.25
2022-12-11T12:58:40.608Z,99873.41
2022-12-11T13:01:13.452Z,99877.97
2022-12-11T13:04:20.873Z,99874.28
2022-12-11T13:06:57.758Z,99891.25
2022-12-11T13:09:38.599Z,99898.44
2022-12-11T13:12:19.521Z,99893.78
2022-12-11T13:15:00.372Z,99888.38
2022-12-11T13:17:39.347Z,99887.78
2022-12-11T13:20:22.199Z,99888.50
2022-12-11T13:22:57.946Z,99899.84
2022-12-11T13:25:30.972Z,99895.56
2022-12-11T13:28:28.769Z,99895.03
2022-12-11T13:31:03.312Z,99902.13
2022-12-11T13:33:30.872Z,99899.69
2022-12-11T13:36:27.151Z,99906.88
2022-12-11T13:39:02.040Z,99914.84
2022-12-11T13:41:32.286Z,99914.94
2022-12-11T13:44:04.003Z,99914.19
2022-12-11T13:46:38.825Z,99918.44
2022-12-11T13:49:08.920Z,99924.47
2022-12-11T13:51:37.332Z,99921.75
2022-12-11T13:54:16.697Z,99924.47
2022-12-11T13:57:15.158Z,99932.06
2022-12-11T13:59:55.971Z,99934.09
2022-12-11T14:02:34.259Z,99934.25
2022-12-11T14:05:06.583Z,99939.41
2022-12-11T14:07:37.320Z,99941.81
2022-12-11T14:10:30.345Z,99944.72
2022-12-11T14:13:02.843Z,99948.19
2022-12-11T14:15:35.526Z,99943.72
2022-12-11T14:18:15.074Z,99944.53
2022-12-11T14:20:46.756Z,99955.13
2022-12-11T14:23:23.736Z,99954.34
2022-12-11T14:26:19.532Z,99953.53
2022-12-11T14:28:54.768Z,99950.78
2022-12-11T14:31:44.634Z,99961.88
2022-12-11T14:34:21.225Z,99961.03
2022-12-11T14:36:49.736Z,99963.53
2022-12-11T14:39:34.600Z,99966.09
2022-12-11T14:42:07.693Z,99970.72
2022-12-11T14:44:58.104Z,99970.28
2022-12-11T14:47:31.255Z,99981.84
2022-12-11T14:50:07.167Z,99987.06
2022-12-11T14:52:47.395Z,99995.81
2022-12-11T14:55:27.850Z,99994.59
2022-12-11T14:58:03.281Z,100002.72
2022-12-11T15:00:33.409Z,99999.28
2022-12-11T15:03:29.452Z,100004.69
2022-12-11T15:05:58.078Z,100012.75
2022-12-11T15:08:29.458Z,100011.50
2022-12-11T15:11:21.720Z,100014.50
2022-12-11T15:13:51.400Z,100016.47
2022-12-11T15:16:27.020Z,100022.47
2022-12-11T15:18:59.049Z,100033.16
2022-12-11T15:21:34.523Z,100036.38
2022-12-11T15:24:07.216Z,100031.13
2022-12-11T15:26:41.595Z,100041.41
2022-12-11T15:29:42.673Z,100036.34
2022-12-11T15:32:09.443Z,100038.03
2022-12-11T15:34:50.192Z,100036.22
2022-12-11T15:37:23.707Z,100039.72
2022-12-11T15:39:51.720Z,100040.66
2022-12-11T15:42:40.725Z,100043.34
2022-12-11T15:45:20.110Z,100049.47
2022-12-11T15:47:48.882Z,100059.91
2022-12-11T15:50:22.079Z,100057.06
2022-12-11T15:52:54.860Z,100064.94
2022-12-11T15:55:23.513Z,100053.75
2022-12-11T15:58:02.467Z,100056.44
2022-12-11T16:00:34.799Z,100056.72
2022-12-11T16:03:01.528Z,100056.72
2022-12-11T16:05:35.678Z,100061.94
2022-12-11T16:08:02.478Z,100071.03
2022-12-11T16:10:32.518Z,100071.94
2022-12-11T16:13:04.046Z,100079.69
2022-12-11T16:15:31.235Z,100089.38
2022-12-11T16:18:09.886Z,100089.72
2022-12-11T16:20:41.210Z,100083.34
2022-12-11T16:23:18.118Z,100095.63
2022-12-11T16:25:46.327Z,100094.06
2022-12-11T16:28:16.390Z,100098.72
2022-12-11T16:30:46.161Z,100097.38
2022-12-11T16:33:13.807Z,100109.97
2022-12-11T16:35:42.194Z,100104.03
2022-12-11T16:38:10.265Z,100104.03
2022-12-11T16:40:39.673Z,100108.47
2022-12-11T16:43:14.847Z,100112.81
2022-12-11T16:45:47.862Z,100114.72
2022-12-11T16:48:14.727Z,100115.38
2022-12-11T16:50:56.183Z,100117.56
2022-12-11T16:53:28.399Z,100119.66
2022-12-11T16:55:55.300Z,100117.97
2022-12-11T16:58:24.622Z,100125.16
2022-12-11T17:03:26.811Z,100123.00
2022-12-11T17:05:53.770Z,100124.00
2022-12-11T17:08:23.106Z,100116.91
2022-12-11T17:10:50.205Z,100129.13
2022-12-11T17:13:17.403Z,100121.19
2022-12-11T17:15:46.276Z,100137.13
2022-12-11T17:18:13.912Z,100131.31
2022-12-11T17:20:42.403Z,100127.81
2022-12-11T17:23:10.864Z,100133.94
2022-12-11T17:25:41.936Z,100131.41
2022-12-11T17:28:14.019Z,100124.44
2022-12-11T17:30:44.130Z,100122.81
2022-12-11T17:33:12.636Z,100128.91
2022-12-11T17:35:39.691Z,100135.91
2022-12-11T17:38:06.637Z,100138.53
2022-12-11T17:40:33.687Z,100126.41
2022-12-11T17:43:00.788Z,100126.31
2022-12-11T17:45:28.030Z,100130.72
2022-12-11T17:47:54.807Z,100132.16
2022-12-11T17:50:21.777Z,100138.22
2022-12-11T17:52:49.111Z,100141.38
2022-12-11T17:55:16.435Z,100145.88
2022-12-11T17:57:43.815Z,100146.13
2022-12-11T18:00:11.238Z,100149.63
2022-12-11T18:02:38.371Z,100147.91
2022-12-11T18:05:05.607Z,100153.88
2022-12-11T18:07:36.547Z,100149.63
2022-12-11T18:10:10.146Z,100154.22
2022-12-11T18:12:37.779Z,100159.53
2022-12-11T18:15:11.116Z,100162.13
2022-12-11T18:17:44.700Z,100163.00
2022-12-11T18:20:20.493Z,100169.00
2022-12-11T18:22:55.667Z,100172.44
2022-12-11T18:25:26.145Z,100172.50
2022-12-11T18:27:57.003Z,100178.28
2022-12-11T18:30:24.884Z,100179.25
2022-12-11T18:32:55.407Z,100182.75
2022-12-11T18:35:25.942Z,100181.13
2022-12-11T18:38:00.307Z,100192.41
2022-12-11T18:40:30.201Z,100190.81
2022-12-11T18:42:58.924Z,100195.16
2022-12-11T18:45:26.318Z,100193.44
2022-12-11T18:47:59.353Z,100199.41
2022-12-11T18:50:27.194Z,100199.47
2022-12-11T18:53:00.485Z,100197.78
2022-12-11T18:55:27.581Z,100200.41
2022-12-11T18:57:57.410Z,100202.13
2022-12-11T19:00:24.806Z,100210.81
2022-12-11T19:02:54.043Z,100208.22
2022-12-11T19:05:20.848Z,100213.44
2022-12-11T19:07:47.788Z,100221.22
2022-12-11T19:10:17.484Z,100212.53
2022-12-11T19:12:44.352Z,100217.72
2022-12-11T19:15:15.871Z,100216.00
2022-12-11T19:17:48.089Z,100219.38
2022-12-11T19:20:48.556Z,100225.56
2022-12-11T19:23:07.944Z,100227.31
2022-12-11T19:25:34.937Z,100222.13
2022-12-11T19:28:02.088Z,100229.00
2022-12-11T19:30:29.011Z,100220.47
2022-12-11T19:33:01.424Z,100225.63
2022-12-11T19:35:31.229Z,100218.75
2022-12-11T19:38:02.385Z,100221.31
2022-12-11T19:40:34.135Z,100227.34
2022-12-11T19:43:07.224Z,100227.34
2022-12-11T19:45:41.837Z,100225.63
2022-12-11T19:48:11.553Z,100227.31
2022-12-11T19:50:40.132Z,100223.06
2022-12-11T19:53:09.377Z,100230.00
2022-12-11T19:55:45.243Z,100227.34
2022-12-11T19:58:13.445Z,100231.66
2022-12-11T20:00:40.787Z,100232.56
2022-12-11T20:03:10.985Z,100233.50
2022-12-11T20:05:38.175Z,100240.41
2022-12-11T20:08:42.873Z,100238.72
2022-12-11T20:11:10.568Z,100244.78
2022-12-11T20:13:41.409Z,100237.91
2022-12-11T20:16:12.306Z,100245.69
2022-12-11T20:18:40.580Z,100248.28
2022-12-11T20:21:12.004Z,100249.22
2022-12-11T20:23:45.256Z,100245.72
2022-12-11T20:26:18.160Z,100261.31
2022-12-11T20:28:53.507Z,100267.34
2022-12-11T20:31:27.866Z,100263.94
2022-12-11T20:34:01.801Z,100273.44
2022-12-11T20:36:28.953Z,100277.75
2022-12-11T20:38:59.752Z,100273.44
2022-12-11T20:41:33.333Z,100274.34
2022-12-11T20:44:02.016Z,100277.78
2022-12-11T20:46:30.308Z,100276.91
2022-12-11T20:49:01.710Z,100283.81
2022-12-11T20:51:29.658Z,100287.28
2022-12-11T20:53:59.815Z,100284.69
2022-12-11T20:56:29.353Z,100281.25
2022-12-11T20:59:00.007Z,100282.09
2022-12-11T21:01:39.528Z,100279.44
2022-12-11T21:04:06.458Z,100282.88
2022-12-11T21:06:36.719Z,100276.84
2022-12-11T21:09:13.642Z,100284.69
2022-12-11T21:11:41.129Z,100282.06
2022-12-11T21:14:09.480Z,100287.31
2022-12-11T21:16:40.628Z,100275.03
2022-12-11T21:19:10.215Z,100285.53
2022-12-11T21:21:40.728Z,100288.16
2022-12-11T21:24:20.226Z,100290.78
2022-12-11T21:26:48.388Z,100288.19
2022-12-11T21:29:18.406Z,100297.72
2022-12-11T21:31:45.297Z,100279.53
2022-12-11T21:34:14.205Z,100282.16
2022-12-11T21:36:56.887Z,100287.31
2022-12-11T21:39:28.129Z,100289.91
2022-12-11T21:41:55.372Z,100292.56
2022-12-11T21:47:15.263Z,100298.66
2022-12-11T21:49:42.198Z,100303.88
2022-12-11T21:52:10.647Z,100306.50
2022-12-11T21:54:37.615Z,100317.78
2022-12-11T21:57:08.203Z,100310.84
2022-12-11T21:59:35.171Z,100316.94
2022-12-11T22:02:08.106Z,100329.09
2022-12-11T22:04:34.982Z,100330.81
2022-12-11T22:07:04.384Z,100321.25
2022-12-11T22:09:31.144Z,100322.09
2022-12-11T22:12:01.425Z,100327.31
2022-12-11T22:14:31.478Z,100327.31
2022-12-11T22:16:58.990Z,100326.47
2022-12-11T22:19:32.517Z,100336.88
2022-12-11T22:22:02.797Z,100324.75
2022-12-11T22:24:29.602Z,100327.38
2022-12-11T22:27:04.550Z,100334.28
2022-12-11T22:29:35.829Z,100342.97
2022-12-11T22:32:05.719Z,100347.28
2022-12-11T22:34:32.591Z,100358.53
2022-12-11T22:37:00.583Z,100348.97
2022-12-11T22:39:27.610Z,100349.88
2022-12-11T22:41:55.058Z,100352.47
2022-12-11T22:44:22.239Z,100353.34
2022-12-11T22:46:52.257Z,100358.56
2022-12-11T22:49:20.927Z,100355.06
2022-12-11T22:51:50.411Z,100368.06
2022-12-11T22:54:21.086Z,100362.91
2022-12-11T22:56:47.912Z,100370.69
2022-12-11T22:59:19.797Z,100368.97
2022-12-11T23:01:53.081Z,100380.22
2022-12-11T23:04:22.793Z,100379.34
2022-12-11T23:06:52.971Z,100373.25
2022-12-11T23:09:21.187Z,100377.59
2022-12-11T23:11:48.508Z,100376.72
2022-12-11T23:14:23.389Z,100375.00
2022-12-11T23:16:53.367Z,100381.94
2022-12-11T23:19:29.344Z,100376.72
2022-12-11T23:22:01.951Z,100375.84
2022-12-11T23:24:28.798Z,100371.53
2022-12-11T23:26:58.215Z,100367.22
2022-12-11T23:29:34.701Z,100365.47
2022-12-11T23:32:01.922Z,100378.47
2022-12-11T23:34:28.837Z,100379.31
2022-12-11T23:36:59.219Z,100381.94
2022-12-11T23:39:26.510Z,100380.16
2022-12-11T23:41:53.588Z,100384.50
2022-12-11T23:44:20.520Z,100387.09
2022-12-11T23:46:50.414Z,100387.97
2022-12-11T23:49:21.143Z,100391.41
2022-12-11T23:51:47.940Z,100396.63
2022-12-11T23:54:14.723Z,100401.81
2022-12-11T23:56:41.585Z,100400.94
2022-12-11T23:59:12.591Z,100393.97
